Time;durP1;ratioP1;P1;durP2;ratioP2;P2;SDS_P1;SDS_P2;PMS_P1;PMS_P2;Temp;Humidity;BMP_temperature;BMP_pressure;BME280_temperature;BME280_humidity;BME280_pressure;Samples;Min_cycle;Max_cycle;Signal;HPM_P1;HPM_P2
2022/04/28 00:02:19;;;;;;;15.10;7.20;;;;;;;6.90;70.80;102824.69;5092077;28;20141;-72
2022/04/28 00:04:44;;;;;;;15.13;7.13;;;;;;;6.82;70.47;102809.78;5087941;28;20054;-72
2022/04/28 00:07:09;;;;;;;12.27;7.05;;;;;;;6.79;70.57;102826.16;5090194;28;20031;-72
2022/04/28 00:09:35;;;;;;;15.85;6.97;;;;;;;6.76;71.08;102832.13;5076897;28;20480;-73
2022/04/28 00:12:00;;;;;;;15.13;7.05;;;;;;;6.71;70.93;102827.69;5071387;28;20032;-73
2022/04/28 00:14:25;;;;;;;12.95;6.43;;;;;;;6.70;71.00;102833.69;5081016;28;20029;-72
2022/04/28 00:16:50;;;;;;;16.33;6.95;;;;;;;6.67;71.38;102829.34;5090964;28;20039;-72
2022/04/28 00:19:16;;;;;;;14.02;6.78;;;;;;;6.64;71.35;102829.25;5081080;28;20029;-72
2022/04/28 00:21:41;;;;;;;13.10;7.03;;;;;;;6.50;71.26;102825.44;5071618;28;20071;-72
2022/04/28 00:24:06;;;;;;;13.02;6.95;;;;;;;6.53;72.12;102825.50;5071909;28;20025;-72
2022/04/28 00:26:32;;;;;;;17.02;7.18;;;;;;;6.46;72.28;102816.72;5071473;28;20396;-72
2022/04/28 00:28:57;;;;;;;11.98;6.93;;;;;;;6.56;72.13;102828.19;5071732;28;20090;-72
2022/04/28 00:31:22;;;;;;;13.75;6.80;;;;;;;6.50;72.02;102834.06;5070756;28;20043;-73
2022/04/28 00:33:48;;;;;;;14.00;6.75;;;;;;;6.42;72.40;102820.06;5075047;28;20033;-72
2022/04/28 00:36:14;;;;;;;15.23;7.43;;;;;;;6.47;72.49;102834.00;5091720;28;20097;-72
2022/04/28 00:38:40;;;;;;;18.10;7.68;;;;;;;6.43;73.26;102823.53;5090909;28;20059;-72
2022/04/28 00:41:05;;;;;;;19.13;7.47;;;;;;;6.42;73.36;102824.38;5091627;28;20055;-72
2022/04/28 00:43:31;;;;;;;12.20;6.95;;;;;;;6.41;72.97;102825.19;5091204;28;20020;-72
2022/04/28 00:45:57;;;;;;;15.70;7.60;;;;;;;6.37;72.37;102820.78;5089644;28;20031;-72
2022/04/28 00:51:08;;;;;;;14.65;7.57;;;;;;;6.35;72.73;102817.28;5091875;28;20047;-72
2022/04/28 00:53:40;;;;;;;15.50;7.90;;;;;;;6.29;73.00;102816.28;5082404;28;20483;-72
2022/04/28 00:56:09;;;;;;;13.02;7.18;;;;;;;6.22;73.35;102822.16;5071209;28;20117;-72
2022/04/28 00:58:36;;;;;;;14.63;7.40;;;;;;;6.20;74.04;102822.94;5071062;28;20353;-72
2022/04/28 01:01:02;;;;;;;13.75;7.28;;;;;;;6.13;73.68;102826.22;5075089;28;20046;-72
2022/04/28 01:03:30;;;;;;;14.80;7.97;;;;;;;6.10;74.34;102825.28;5079428;28;20025;-72
2022/04/28 01:05:56;;;;;;;15.52;8.32;;;;;;;6.07;74.04;102820.00;5090879;28;20028;-72
2022/04/28 01:08:21;;;;;;;14.93;7.63;;;;;;;6.05;73.96;102823.44;5091417;28;20055;-72
2022/04/28 01:10:47;;;;;;;13.02;7.80;;;;;;;6.05;74.73;102818.25;5089365;28;20024;-72
2022/04/28 01:13:12;;;;;;;14.30;7.57;;;;;;;6.02;74.39;102823.34;5072110;28;20056;-72
2022/04/28 01:15:45;;;;;;;14.85;7.32;;;;;;;5.94;74.12;102825.69;5071141;28;20457;-72
2022/04/28 01:18:11;;;;;;;;;;;;;;;5.99;71.38;102820.66;5071427;28;20055;-72
2022/04/28 01:20:36;;;;;;;15.43;7.35;;;;;;;5.88;74.61;102825.50;5070364;28;20360;-72
2022/04/28 01:23:04;;;;;;;15.57;6.88;;;;;;;5.82;75.15;102826.22;5073805;28;20114;-72
2022/04/28 01:25:30;;;;;;;15.50;7.80;;;;;;;5.81;75.58;102836.53;5074801;28;20108;-72
2022/04/28 01:27:56;;;;;;;15.10;7.90;;;;;;;5.77;75.67;102834.69;5073922;28;20111;-72
2022/04/28 01:30:22;;;;;;;15.98;7.20;;;;;;;5.75;75.70;102836.34;5074450;28;20046;-72
2022/04/28 01:32:47;;;;;;;15.80;8.20;;;;;;;5.77;75.58;102834.69;5086824;28;20534;-72
2022/04/28 01:35:12;;;;;;;13.45;7.38;;;;;;;5.76;75.81;102832.94;5093775;28;20024;-72
2022/04/28 01:37:38;;;;;;;15.05;8.18;;;;;;;5.66;75.87;102826.63;5094525;28;20036;-72
2022/04/28 01:40:06;;;;;;;17.98;7.57;;;;;;;5.69;75.95;102834.47;5094448;28;20016;-72
2022/04/28 01:42:32;;;;;;;13.57;7.70;;;;;;;5.71;76.07;102830.22;5085436;28;20113;-72
2022/04/28 01:44:57;;;;;;;14.43;8.05;;;;;;;5.66;76.21;102829.22;5094580;28;20101;-72
2022/04/28 01:47:23;;;;;;;16.02;7.20;;;;;;;5.59;76.31;102823.00;5094304;28;20032;-72
2022/04/28 01:49:48;;;;;;;14.43;8.10;;;;;;;5.64;76.09;102830.88;5093570;28;20024;-72
2022/04/28 01:54:57;;;;;;;12.90;7.72;;;;;;;5.58;76.66;102830.69;5094472;28;20039;-72
2022/04/28 01:57:23;;;;;;;18.75;8.30;;;;;;;5.51;76.62;102824.47;5093508;28;20403;-72
2022/04/28 01:59:48;;;;;;;14.43;7.97;;;;;;;5.44;76.76;102816.50;5080139;28;20036;-72
2022/04/28 02:02:13;;;;;;;16.17;8.15;;;;;;;5.51;77.17;102831.34;5075742;28;20032;-72
2022/04/28 02:04:38;;;;;;;15.65;8.05;;;;;;;5.45;76.71;102834.63;5093994;28;20032;-73
2022/04/28 02:07:06;;;;;;;16.15;7.82;;;;;;;5.45;77.54;102836.34;5093974;28;20024;-72
2022/04/28 02:09:32;;;;;;;16.67;7.82;;;;;;;5.40;76.86;102841.41;5082916;28;20388;-72
2022/04/28 02:11:57;;;;;;;13.13;7.65;;;;;;;5.38;77.58;102836.16;5074082;28;20028;-72
2022/04/28 02:14:22;;;;;;;15.18;8.57;;;;;;;5.20;77.42;102816.63;5073866;28;20025;-72
2022/04/28 02:16:47;;;;;;;15.40;8.20;;;;;;;5.29;77.41;102827.25;5072816;28;20082;-72
2022/04/28 02:19:13;;;;;;;13.88;8.63;;;;;;;5.31;77.67;102844.56;5075619;28;20027;-72
2022/04/28 02:21:38;;;;;;;15.68;8.43;;;;;;;5.22;77.73;102843.41;5093524;28;20368;-72
2022/04/28 02:24:04;;;;;;;12.60;8.15;;;;;;;5.17;78.43;102838.13;5092777;28;20035;-72
2022/04/28 02:26:29;;;;;;;13.38;8.15;;;;;;;5.14;78.50;102843.19;5094172;28;20024;-72
2022/04/28 02:28:54;;;;;;;19.23;8.35;;;;;;;5.12;78.58;102839.66;5089832;28;20426;-72
2022/04/28 02:31:20;;;;;;;17.15;8.88;;;;;;;5.07;78.63;102836.06;5073980;28;20024;-72
2022/04/28 02:33:45;;;;;;;13.65;8.90;;;;;;;5.01;78.47;102831.59;5074603;28;20051;-72
2022/04/28 02:36:12;;;;;;;20.48;8.02;;;;;;;4.97;79.27;102834.91;5093377;28;20122;-72
2022/04/28 02:38:38;;;;;;;20.10;9.10;;;;;;;5.00;79.26;102834.97;5090477;28;20028;-72
2022/04/28 02:41:03;;;;;;;15.48;8.00;;;;;;;4.96;78.95;102837.44;5073204;28;20495;-72
2022/04/28 02:43:29;;;;;;;13.98;8.85;;;;;;;4.90;79.15;102832.94;5073395;28;20099;-72
2022/04/28 02:45:54;;;;;;;15.35;7.95;;;;;;;4.86;79.27;102831.09;5072270;28;20028;-72
2022/04/28 02:48:19;;;;;;;15.13;8.68;;;;;;;4.76;79.72;102829.91;5090338;28;20032;-72
2022/04/28 02:50:45;;;;;;;16.33;8.73;;;;;;;4.78;80.20;102833.44;5089735;28;20047;-72
2022/04/28 02:53:10;;;;;;;16.27;8.73;;;;;;;4.74;80.19;102831.59;5092009;28;20395;-72
2022/04/28 02:55:35;;;;;;;16.95;8.35;;;;;;;4.74;80.26;102830.69;5092955;28;20120;-72
2022/04/28 02:58:01;;;;;;;16.67;8.70;;;;;;;4.71;80.26;102834.06;5080200;28;20369;-72
2022/04/28 03:00:27;;;;;;;17.88;8.88;;;;;;;4.66;80.73;102833.91;5076273;28;20119;-72
2022/04/28 03:02:53;;;;;;;15.63;9.32;;;;;;;4.62;81.08;102826.03;5072606;28;20143;-72
2022/04/28 03:05:18;;;;;;;15.48;8.82;;;;;;;4.58;80.94;102826.75;5072607;28;20107;-72
2022/04/28 03:10:49;;;;;;;20.27;8.65;;;;;;;4.55;80.88;102830.09;5074142;28;20101;-72
2022/04/28 03:13:17;;;;;;;20.25;9.13;;;;;;;4.56;81.68;102833.56;5071754;28;20044;-72
2022/04/28 03:15:43;;;;;;;19.17;8.88;;;;;;;4.57;81.68;102833.59;5087580;28;20406;-72
2022/04/28 03:18:08;;;;;;;18.35;9.63;;;;;;;4.52;81.80;102823.97;5092811;28;20030;-72
2022/04/28 03:20:33;;;;;;;16.80;9.65;;;;;;;4.52;81.82;102824.84;5090276;28;20138;-72
2022/04/28 03:22:59;;;;;;;19.70;9.25;;;;;;;4.56;81.40;102838.72;5092937;28;20028;-72
2022/04/28 03:25:24;;;;;;;18.45;9.32;;;;;;;4.53;81.59;102828.28;5089076;28;20028;-72
2022/04/28 03:27:49;;;;;;;20.92;9.52;;;;;;;4.53;81.89;102830.88;5091748;28;20467;-72
2022/04/28 03:30:14;;;;;;;18.08;9.82;;;;;;;4.46;81.75;102828.09;5078459;28;20048;-72
2022/04/28 03:32:42;;;;;;;21.02;10.05;;;;;;;4.42;81.79;102839.16;5072290;28;20371;-72
2022/04/28 03:35:10;;;;;;;17.13;9.02;;;;;;;4.37;81.57;102835.53;5078064;28;20020;-72
2022/04/28 03:37:36;;;;;;;17.45;9.60;;;;;;;4.37;82.52;102837.22;5092207;28;20499;-72
2022/04/28 03:40:01;;;;;;;16.25;10.20;;;;;;;4.37;82.40;102835.53;5092362;28;20032;-72
2022/04/28 03:42:27;;;;;;;20.95;8.75;;;;;;;4.40;82.17;102835.63;5081860;28;20043;-72
2022/04/28 03:44:53;;;;;;;19.50;9.50;;;;;;;4.42;82.37;102833.97;5075184;28;20477;-72
2022/04/28 03:47:19;;;;;;;17.42;9.38;;;;;;;4.41;82.12;102837.41;5092381;28;20111;-72
2022/04/28 03:49:44;;;;;;;19.13;9.27;;;;;;;4.34;81.99;102825.09;5091525;28;20039;-72
2022/04/28 03:52:09;;;;;;;15.60;9.40;;;;;;;4.36;82.12;102838.94;5083731;28;20388;-72
2022/04/28 03:54:35;;;;;;;17.00;9.43;;;;;;;4.35;82.30;102839.78;5080565;28;20039;-72
2022/04/28 03:57:00;;;;;;;19.05;9.07;;;;;;;4.38;82.49;102838.97;5071366;28;20469;-72
2022/04/28 03:59:25;;;;;;;15.68;9.45;;;;;;;4.34;82.36;102843.16;5071686;28;20028;-72
2022/04/28 04:01:52;;;;;;;21.48;9.35;;;;;;;4.25;82.48;102840.28;5075316;28;20032;-72
2022/04/28 04:04:17;;;;;;;17.95;8.95;;;;;;;4.26;83.01;102847.19;5092106;28;20048;-72
2022/04/28 04:06:42;;;;;;;24.38;10.57;;;;;;;4.20;82.60;102849.56;5078537;28;20069;-71
2022/04/28 04:09:08;;;;;;;18.80;9.85;;;;;;;4.16;83.29;102846.00;5074982;28;20032;-72
2022/04/28 04:11:33;;;;;;;27.52;10.45;;;;;;;4.10;83.24;102844.91;5091939;28;20020;-72
2022/04/28 04:13:58;;;;;;;19.10;10.52;;;;;;;4.12;83.71;102849.31;5084235;28;20585;-72
2022/04/28 04:16:24;;;;;;;18.63;10.25;;;;;;;4.12;83.59;102849.31;5071789;28;20052;-72
2022/04/28 04:18:49;;;;;;;22.95;10.82;;;;;;;4.10;84.14;102855.22;5072336;28;20419;-72
2022/04/28 04:21:14;;;;;;;20.30;10.30;;;;;;;4.03;83.87;102848.09;5091847;28;20032;-72
2022/04/28 04:23:39;;;;;;;18.70;10.57;;;;;;;4.03;83.70;102854.13;5090937;28;20464;-72
2022/04/28 04:26:05;;;;;;;16.95;10.30;;;;;;;4.02;84.18;102857.53;5081290;28;20028;-72
2022/04/28 04:28:31;;;;;;;18.95;10.70;;;;;;;3.97;84.15;102853.91;5071474;28;20392;-72
2022/04/28 04:33:41;;;;;;;21.23;10.55;;;;;;;3.95;84.55;102860.72;5071832;28;20507;-72
2022/04/28 04:36:06;;;;;;;22.33;11.35;;;;;;;3.99;84.45;102853.16;5083582;28;20103;-72
2022/04/28 04:38:31;;;;;;;21.35;10.60;;;;;;;3.99;84.41;102860.91;5090764;28;20024;-72
2022/04/28 04:40:57;;;;;;;26.30;10.63;;;;;;;4.02;84.79;102862.69;5091848;28;20035;-72
2022/04/28 04:43:22;;;;;;;22.10;11.07;;;;;;;4.01;84.35;102865.22;5088996;28;20035;-72
2022/04/28 04:45:47;;;;;;;24.45;11.13;;;;;;;4.01;84.44;102860.06;5073783;28;20395;-72
2022/04/28 04:48:13;;;;;;;20.65;10.65;;;;;;;4.04;84.72;102863.63;5074640;28;20024;-72
2022/04/28 04:50:39;;;;;;;21.30;10.23;;;;;;;4.14;85.03;102867.41;5091392;28;20028;-72
2022/04/28 04:53:05;;;;;;;21.88;11.30;;;;;;;4.18;85.12;102871.84;5090567;28;20036;-72
2022/04/28 04:55:36;;;;;;;21.15;11.85;;;;;;;4.24;84.57;102874.66;5085076;28;20040;-72
2022/04/28 04:58:01;;;;;;;21.05;10.57;;;;;;;4.26;84.00;102870.44;5083540;28;20035;-72
2022/04/28 05:00:27;;;;;;;25.33;11.07;;;;;;;4.33;83.96;102884.44;5095568;28;20019;-72
2022/04/28 05:02:52;;;;;;;23.08;11.75;;;;;;;4.35;84.09;102883.69;5090626;28;20044;-72
2022/04/28 05:05:17;;;;;;;21.17;11.82;;;;;;;4.38;84.15;102873.47;5075205;28;20071;-72
2022/04/28 05:07:43;;;;;;;23.60;11.75;;;;;;;4.45;84.14;102878.00;5074873;28;20116;-72
2022/04/28 05:10:08;;;;;;;24.95;11.43;;;;;;;4.51;83.89;102884.19;5074810;28;20464;-72
2022/04/28 05:12:34;;;;;;;22.98;10.90;;;;;;;4.47;84.03;102878.91;5076723;28;20459;-72
2022/04/28 05:14:59;;;;;;;24.77;12.30;;;;;;;4.56;84.15;102896.44;5093175;28;20043;-72
2022/04/28 05:17:25;;;;;;;21.90;11.57;;;;;;;4.63;83.88;102900.09;5074788;28;20182;-71
2022/04/28 05:19:50;;;;;;;24.38;12.07;;;;;;;4.69;83.96;102905.47;5075131;28;20043;-72
2022/04/28 05:22:15;;;;;;;31.85;12.15;;;;;;;4.73;83.72;102909.03;5074547;28;20318;-72
2022/04/28 05:24:41;;;;;;;23.02;11.73;;;;;;;4.72;83.01;102892.66;5074646;28;20373;-71
2022/04/28 05:27:06;;;;;;;22.92;12.13;;;;;;;4.86;83.18;102903.47;5074743;28;20032;-72
2022/04/28 05:29:31;;;;;;;23.70;12.00;;;;;;;4.95;82.91;102910.66;5074564;28;20025;-72
2022/04/28 05:31:56;;;;;;;25.80;12.38;;;;;;;4.96;82.91;102902.94;5094606;28;20028;-72
2022/04/28 05:34:22;;;;;;;23.17;11.98;;;;;;;4.96;82.80;102905.50;5094093;28;20028;-72
2022/04/28 05:36:48;;;;;;;24.48;12.77;;;;;;;4.98;82.48;102909.03;5078266;28;20038;-72
2022/04/28 05:39:15;;;;;;;24.05;13.05;;;;;;;5.05;82.54;102910.13;5084359;28;20497;-72
2022/04/28 05:41:40;;;;;;;23.38;12.60;;;;;;;5.13;82.95;102917.28;5093530;28;20028;-72
2022/04/28 05:46:53;;;;;;;26.77;13.00;;;;;;;5.25;82.29;102915.91;5094458;28;20153;-72
2022/04/28 05:49:19;;;;;;;29.08;13.10;;;;;;;5.31;82.16;102922.16;5083298;28;20476;-72
2022/04/28 05:51:44;;;;;;;28.20;12.73;;;;;;;5.37;81.66;102919.78;5079943;28;20028;-72
2022/04/28 05:54:09;;;;;;;27.13;13.30;;;;;;;5.40;81.47;102924.16;5094051;28;20488;-72
2022/04/28 05:56:35;;;;;;;26.48;12.85;;;;;;;5.49;81.79;102928.72;5093600;28;20020;-72
2022/04/28 05:59:00;;;;;;;22.58;13.25;;;;;;;5.51;81.20;102924.50;5090552;28;20028;-72
2022/04/28 06:01:25;;;;;;;27.23;12.95;;;;;;;5.66;81.35;102934.41;5091829;28;20039;-72
2022/04/28 06:03:50;;;;;;;24.33;13.00;;;;;;;5.74;80.68;102936.41;5094135;28;20503;-72
2022/04/28 06:06:16;;;;;;;23.30;13.65;;;;;;;5.80;79.98;102939.19;5094033;28;20028;-72
2022/04/28 06:08:41;;;;;;;27.65;13.68;;;;;;;5.86;80.69;102941.97;5081713;28;20089;-71
2022/04/28 06:11:06;;;;;;;23.70;12.57;;;;;;;5.94;80.17;102943.91;5073940;28;20025;-72
2022/04/28 06:13:32;;;;;;;23.45;12.40;;;;;;;6.00;79.53;102941.50;5073874;28;20187;-72
2022/04/28 06:16:00;;;;;;;27.58;12.68;;;;;;;6.06;79.69;102939.09;5073068;28;20020;-72
2022/04/28 06:18:27;;;;;;;28.25;13.40;;;;;;;6.15;80.52;102941.97;5074741;28;20036;-72
2022/04/28 06:20:52;;;;;;;23.63;12.57;;;;;;;6.23;80.14;102950.81;5073450;28;20017;-72
2022/04/28 06:23:18;;;;;;;23.13;13.55;;;;;;;6.31;79.76;102946.72;5072682;28;20151;-72
2022/04/28 06:25:43;;;;;;;25.25;12.88;;;;;;;6.39;78.39;102946.06;5075432;28;20456;-72
2022/04/28 06:28:13;;;;;;;24.85;13.82;;;;;;;6.44;78.28;102947.06;5073547;28;20464;-72
2022/04/28 06:30:38;;;;;;;25.80;12.60;;;;;;;6.55;77.76;102961.19;5076153;28;20128;-72
2022/04/28 06:33:04;;;;;;;20.17;12.75;;;;;;;6.61;77.86;102953.59;5091071;28;20172;-72
2022/04/28 06:35:30;;;;;;;22.55;13.48;;;;;;;6.71;77.36;102952.13;5084708;28;20039;-72
2022/04/28 06:37:55;;;;;;;22.13;12.35;;;;;;;6.79;77.89;102960.94;5072401;28;20036;-72
2022/04/28 06:40:20;;;;;;;24.10;12.32;;;;;;;6.87;76.64;102956.84;5086617;28;20504;-72
2022/04/28 06:42:50;;;;;;;20.30;12.32;;;;;;;6.99;76.63;102964.06;5093296;28;20031;-71
2022/04/28 06:45:16;;;;;;;22.90;12.27;;;;;;;7.04;77.42;102962.47;5091462;28;20020;-72
2022/04/28 06:47:41;;;;;;;25.40;13.48;;;;;;;7.10;77.18;102967.81;5093236;28;20438;-72
2022/04/28 06:50:06;;;;;;;26.30;13.02;;;;;;;7.16;77.31;102961.88;5093089;28;20038;-72
2022/04/28 06:52:34;;;;;;;22.50;12.35;;;;;;;7.18;76.39;102955.88;5073492;28;20427;-71
2022/04/28 06:55:00;;;;;;;21.33;12.98;;;;;;;7.27;76.08;102966.50;5091397;28;20028;-72
2022/04/28 06:57:25;;;;;;;24.48;12.32;;;;;;;7.34;75.66;102961.44;5113465;28;20050;-72
2022/04/28 06:59:50;;;;;;;20.83;12.02;;;;;;;7.39;74.58;102962.41;5103995;28;20433;-72
2022/04/28 07:02:16;;;;;;;23.40;12.15;;;;;;;7.46;75.42;102966.94;5092929;28;20043;-72
2022/04/28 07:04:43;;;;;;;22.48;12.23;;;;;;;7.54;74.77;102974.91;5092080;28;20426;-72
2022/04/28 07:07:08;;;;;;;19.25;12.52;;;;;;;7.66;75.18;102977.78;5086517;28;20082;-72
2022/04/28 07:09:33;;;;;;;23.65;11.93;;;;;;;7.76;73.99;102984.06;5072470;28;20036;-72
2022/04/28 07:11:59;;;;;;;22.45;12.18;;;;;;;7.83;73.42;102980.75;5084775;28;20032;-72
2022/04/28 07:14:24;;;;;;;21.70;11.88;;;;;;;7.93;72.91;102990.50;5092387;28;20395;-72
2022/04/28 07:16:49;;;;;;;17.58;12.05;;;;;;;7.99;73.22;102985.44;5088772;28;20028;-72
2022/04/28 07:19:14;;;;;;;23.35;12.32;;;;;;;8.09;72.40;102991.69;5071408;28;20082;-72
2022/04/28 07:21:40;;;;;;;22.13;11.23;;;;;;;8.16;71.71;102997.03;5071411;28;20028;-72
2022/04/28 07:24:05;;;;;;;22.15;11.57;;;;;;;8.23;71.90;102999.78;5072447;28;20029;-71
2022/04/28 07:26:30;;;;;;;22.85;11.73;;;;;;;8.27;71.37;102992.06;5071374;28;20031;-71
2022/04/28 07:28:56;;;;;;;21.45;12.40;;;;;;;8.34;71.54;102993.97;5073535;28;20060;-72
2022/04/28 07:31:21;;;;;;;24.77;11.68;;;;;;;8.44;71.49;102990.72;5072055;28;20028;-71
2022/04/28 07:33:47;;;;;;;22.25;11.55;;;;;;;8.52;70.08;103003.00;5072882;28;20030;-72
2022/04/28 07:36:12;;;;;;;23.23;12.00;;;;;;;8.61;71.37;103009.25;5080161;28;20145;-72
2022/04/28 07:38:38;;;;;;;23.35;11.15;;;;;;;8.73;70.17;103008.63;5077275;28;20116;-72
2022/04/28 07:41:04;;;;;;;22.70;12.00;;;;;;;8.82;70.76;103007.91;5071377;28;20021;-71
2022/04/28 07:43:29;;;;;;;20.00;11.27;;;;;;;8.88;69.51;103001.09;5082538;28;20073;-72
2022/04/28 07:45:54;;;;;;;23.30;11.25;;;;;;;8.99;68.64;103010.78;5087880;28;20035;-72
2022/04/28 07:48:19;;;;;;;24.38;11.27;;;;;;;9.06;68.74;103007.47;5091136;28;20020;-72
2022/04/28 07:50:46;;;;;;;20.23;10.65;;;;;;;9.11;67.76;103016.22;5091961;28;20387;-72
2022/04/28 07:53:12;;;;;;;23.88;11.13;;;;;;;9.17;69.01;103020.66;5091798;28;20444;-72
2022/04/28 07:55:37;;;;;;;19.40;10.52;;;;;;;9.24;68.45;103019.91;5075185;28;20035;-72
2022/04/28 07:58:02;;;;;;;21.63;11.15;;;;;;;9.31;67.65;103026.97;5071784;28;20036;-72
2022/04/28 08:00:27;;;;;;;25.15;11.07;;;;;;;9.40;67.50;103021.91;5072090;28;20388;-72
2022/04/28 08:02:53;;;;;;;16.48;9.57;;;;;;;9.51;66.80;103020.34;5071929;28;20089;-72
2022/04/28 08:05:18;;;;;;;21.35;10.50;;;;;;;9.65;66.56;103024.91;5071431;28;20029;-72
2022/04/28 08:07:44;;;;;;;19.42;10.40;;;;;;;9.74;65.26;103025.03;5072603;28;20449;-72
2022/04/28 08:10:10;;;;;;;20.48;10.75;;;;;;;9.83;66.17;103025.19;5071010;28;20028;-72
2022/04/28 08:12:35;;;;;;;29.80;10.98;;;;;;;9.89;65.61;103029.59;5082501;28;20028;-72
2022/04/28 08:15:00;;;;;;;25.83;10.48;;;;;;;10.03;66.05;103030.66;5083425;28;20468;-72
2022/04/28 08:17:26;;;;;;;20.92;10.60;;;;;;;10.17;66.11;103025.63;5075553;28;20077;-73
2022/04/28 08:19:51;;;;;;;27.10;11.38;;;;;;;10.19;64.60;103032.63;5091568;28;20028;-72
2022/04/28 08:22:17;;;;;;;19.60;10.30;;;;;;;10.27;64.35;103033.63;5089290;28;20075;-72
2022/04/28 08:24:42;;;;;;;41.75;11.02;;;;;;;10.38;64.22;103038.13;5071620;28;20029;-72
2022/04/28 08:27:07;;;;;;;31.55;10.23;;;;;;;10.40;62.89;103037.28;5072396;28;20540;-72
2022/04/28 08:29:33;;;;;;;19.65;9.30;;;;;;;10.43;62.30;103044.25;5071138;28;20153;-72
2022/04/28 08:31:58;;;;;;;21.08;10.10;;;;;;;10.43;62.37;103032.09;5073427;28;20028;-72
2022/04/28 08:34:24;;;;;;;21.42;11.02;;;;;;;10.57;64.28;103039.22;5075428;28;20103;-72
2022/04/28 08:36:50;;;;;;;19.65;10.00;;;;;;;10.63;62.75;103042.78;5074240;28;20028;-72
2022/04/28 08:39:16;;;;;;;18.35;9.68;;;;;;;10.72;61.39;103041.97;5084949;28;20051;-72
2022/04/28 08:41:45;;;;;;;19.80;10.05;;;;;;;10.75;61.86;103042.00;5083120;28;20028;-72
2022/04/28 08:44:17;;;;;;;18.65;10.45;;;;;;;10.83;61.82;103047.34;5094871;28;20031;-72
2022/04/28 08:46:52;;;;;;;23.20;10.57;;;;;;;10.95;61.21;103042.22;5095461;28;20035;-72
2022/04/28 08:49:22;;;;;;;20.58;9.88;;;;;;;11.12;62.22;103047.63;5095304;28;20024;-72
2022/04/28 08:51:50;;;;;;;20.27;10.07;;;;;;;11.20;60.56;103038.13;5094765;28;20173;-73
2022/04/28 08:54:16;;;;;;;26.23;10.57;;;;;;;11.30;61.05;103042.56;5095502;28;20036;-72
2022/04/28 08:56:42;;;;;;;23.75;11.40;;;;;;;11.35;60.39;103043.47;5095307;28;20024;-72
2022/04/28 08:59:07;;;;;;;22.25;10.32;;;;;;;11.42;59.80;103033.97;5080699;28;20525;-72
2022/04/28 09:01:33;;;;;;;19.08;11.10;;;;;;;11.48;58.90;103042.72;5079997;28;20035;-73
2022/04/28 09:04:01;;;;;;;22.40;11.02;;;;;;;11.54;57.94;103046.22;5095658;28;20039;-73
2022/04/28 09:06:29;;;;;;;21.98;9.82;;;;;;;11.57;57.26;103038.41;5094797;28;20096;-73
2022/04/28 09:08:55;;;;;;;19.75;10.75;;;;;;;11.68;58.59;103039.38;5092610;28;20059;-73
2022/04/28 09:11:23;;;;;;;22.42;10.52;;;;;;;11.84;57.82;103049.09;5082661;28;20627;-73
2022/04/28 09:14:11;;;;;;;20.67;10.43;;;;;;;11.96;58.65;103045.66;5085338;28;20107;-73
2022/04/28 09:16:48;;;;;;;21.60;11.15;;;;;;;12.00;58.84;103034.38;5094983;28;20051;-73
2022/04/28 09:19:34;;;;;;;20.00;10.43;;;;;;;12.11;58.14;103037.91;5093319;28;20058;-73
2022/04/28 09:22:12;;;;;;;19.02;10.90;;;;;;;12.27;57.93;103040.63;5085517;28;20029;-73
2022/04/28 09:24:39;;;;;;;21.40;11.80;;;;;;;12.34;56.89;103027.56;5077957;28;20032;-73
2022/04/28 09:27:04;;;;;;;20.75;10.63;;;;;;;12.52;57.99;103028.50;5084133;28;20044;-73
2022/04/28 09:29:36;;;;;;;19.65;10.70;;;;;;;12.71;58.46;103027.66;5082253;28;20020;-73
2022/04/28 09:32:06;;;;;;;21.35;11.25;;;;;;;12.85;56.14;103015.50;5082402;28;20039;-73
2022/04/28 09:34:31;;;;;;;18.02;11.30;;;;;;;12.90;54.76;103025.97;5078630;28;20025;-73
2022/04/28 09:36:58;;;;;;;20.75;11.23;;;;;;;12.88;55.43;103019.84;5089917;28;20088;-73
2022/04/28 09:42:31;;;;;;;23.33;11.45;;;;;;;13.07;55.25;103015.50;5091658;28;20085;-73
2022/04/28 09:44:58;;;;;;;18.73;10.90;;;;;;;13.26;53.99;103025.16;5093871;28;20024;-72
2022/04/28 09:47:26;;;;;;;25.67;11.18;;;;;;;13.33;54.09;103023.41;5092681;28;20077;-72
2022/04/28 09:49:58;;;;;;;22.58;11.23;;;;;;;13.40;53.35;103019.91;5076193;28;20032;-72
2022/04/28 09:52:26;;;;;;;22.23;11.77;;;;;;;13.47;53.95;103020.78;5073975;28;20049;-72
2022/04/28 09:54:52;;;;;;;21.63;12.95;;;;;;;13.45;52.75;103015.56;5073294;28;20085;-72
2022/04/28 09:57:20;;;;;;;18.95;11.43;;;;;;;13.57;54.16;103022.53;5081073;28;20119;-72
2022/04/28 09:59:46;;;;;;;18.67;10.45;;;;;;;13.70;53.37;103012.88;5093796;28;20070;-72
2022/04/28 10:02:16;;;;;;;21.85;10.88;;;;;;;13.96;53.10;103011.09;5086249;28;20075;-73
2022/04/28 10:04:45;;;;;;;20.15;10.95;;;;;;;14.17;51.92;103009.28;5094137;28;20043;-73
2022/04/28 10:07:14;;;;;;;17.95;10.70;;;;;;;14.15;48.86;103006.63;5094012;28;20036;-73
2022/04/28 10:09:41;;;;;;;18.27;10.63;;;;;;;14.17;50.34;102994.41;5092093;28;20527;-73
2022/04/28 10:12:07;;;;;;;18.88;10.65;;;;;;;14.17;50.99;102989.16;5092020;28;20028;-72
2022/04/28 10:14:40;;;;;;;16.92;10.48;;;;;;;14.27;51.94;102995.22;5083160;28;20593;-73
2022/04/28 10:17:11;;;;;;;15.90;10.77;;;;;;;14.39;51.12;102996.94;5092473;28;20047;-73
2022/04/28 10:19:42;;;;;;;21.00;9.85;;;;;;;14.55;51.63;102988.13;5094018;28;20020;-73
2022/04/28 10:22:11;;;;;;;17.35;10.38;;;;;;;14.63;50.00;102983.69;5091473;28;20020;-73
2022/04/28 10:33:09;;;;;;;17.45;10.90;;;;;;;15.03;46.40;102988.66;5081744;28;20102;-72
2022/04/28 10:35:41;;;;;;;17.65;11.07;;;;;;;15.16;48.34;102989.44;5091249;28;20031;-73
2022/04/28 10:38:19;;;;;;;16.17;10.43;;;;;;;15.35;48.35;102993.63;5093139;28;20391;-73
2022/04/28 10:40:58;;;;;;;17.38;10.32;;;;;;;15.34;47.44;102977.91;5092585;28;20024;-73
2022/04/28 10:43:33;;;;;;;18.25;10.98;;;;;;;15.33;46.26;102992.75;5078736;28;20025;-72
2022/04/28 10:46:22;;;;;;;15.85;10.00;;;;;;;15.34;46.60;102980.53;5075922;28;20036;-72
2022/04/28 10:48:59;;;;;;;14.73;10.73;;;;;;;15.41;44.91;102982.19;5061598;28;20037;-73
2022/04/28 10:51:30;;;;;;;18.15;10.82;;;;;;;15.68;45.71;102983.69;5090449;28;20483;-72
2022/04/28 10:53:58;;;;;;;16.48;10.10;;;;;;;15.74;45.71;102980.16;5087155;28;20041;-73
2022/04/28 10:56:26;;;;;;;20.63;10.88;;;;;;;15.73;45.58;102978.38;5072721;28;20369;-73
2022/04/28 10:59:00;;;;;;;20.45;11.45;;;;;;;15.85;45.69;102980.88;5075907;28;20055;-73
2022/04/28 11:01:28;;;;;;;17.98;11.18;;;;;;;16.05;45.62;102973.63;5085596;28;20056;-73
2022/04/28 11:04:01;;;;;;;17.98;11.35;;;;;;;16.07;44.91;102976.25;5083065;28;20024;-73
2022/04/28 11:06:31;;;;;;;;;;;;;;;16.08;46.36;102973.56;5081609;28;20028;-73
2022/04/28 11:08:59;;;;;;;16.52;10.75;;;;;;;16.21;46.31;102963.75;5088970;28;20007;-73
2022/04/28 11:11:29;;;;;;;16.90;10.23;;;;;;;16.34;44.87;102969.72;5079714;28;20036;-73
2022/04/28 11:13:57;;;;;;;20.73;11.32;;;;;;;16.46;42.19;102964.31;5086981;28;20024;-74
2022/04/28 11:16:24;;;;;;;22.92;11.23;;;;;;;16.49;43.18;102959.00;5078544;28;20028;-73
2022/04/28 11:18:49;;;;;;;18.60;10.57;;;;;;;16.70;43.85;102970.09;5073348;28;20036;-73
2022/04/28 11:21:15;;;;;;;16.90;10.45;;;;;;;16.75;42.00;102969.19;5080410;28;20031;-73
2022/04/28 11:23:46;;;;;;;22.20;11.45;;;;;;;16.80;45.40;102961.19;5073553;28;20040;-73
2022/04/28 11:26:12;;;;;;;16.23;11.30;;;;;;;16.83;41.67;102969.91;5071622;28;20037;-74
2022/04/28 11:28:39;;;;;;;18.27;11.07;;;;;;;16.89;42.34;102965.44;5073508;28;20036;-73
2022/04/28 11:31:09;;;;;;;14.05;10.50;;;;;;;17.08;42.60;102959.84;5072209;28;20032;-73
2022/04/28 11:33:38;;;;;;;17.88;11.15;;;;;;;17.32;41.17;102961.16;5071238;28;20037;-74
2022/04/28 11:36:14;;;;;;;16.73;11.50;;;;;;;17.47;42.42;102965.31;5072195;28;20078;-73
2022/04/28 11:38:48;;;;;;;17.92;10.48;;;;;;;17.71;43.07;102945.50;5072150;28;20035;-74
2022/04/28 11:41:13;;;;;;;20.23;11.52;;;;;;;17.81;39.79;102956.75;5074967;28;20485;-73
2022/04/28 11:43:38;;;;;;;18.15;11.55;;;;;;;18.08;38.76;102957.09;5087987;28;20071;-73